Argyle, Minnesota
Current Conditions -  °F | °C
As of 8:55 AM on Saturday 01 Nov 2014 (Local Time) from KGAF Reporting Station
Clear Clear  
Wind Chill: 17°   Ceiling: Unl
Heat Index: 30°   Visibility: 10mi
Dew Point: 18°   Wind: 21mph
Humidity: 60%   Direction: 170°S
Pressure: 30.11"   Gusts: 28mph
Location:  48.33°N, 96.82°W
Report Text: KGAF 011355Z AUTO 17018G24KT 10SM CLR M01/M08 A3011 RMK AO2
Loading
Personal Weather Stations






























Interactive Weather Map
Tropical Storm Tracking
New forecast layout! Learn more

10-Day Weather Forecast

Advertisements
Track Severe Weather on mobile